sensor_id;sensor_type;location;lat;lon;timestamp;temperature;humidity
26909;DHT22;14477;51.038;4.588;2022-07-24T00:01:59;22.40;70.90
26909;DHT22;14477;51.038;4.588;2022-07-24T00:04:25;22.30;70.90
26909;DHT22;14477;51.038;4.588;2022-07-24T00:06:51;22.30;71.10
26909;DHT22;14477;51.038;4.588;2022-07-24T00:09:16;22.20;71.10
26909;DHT22;14477;51.038;4.588;2022-07-24T00:11:43;22.20;71.30
26909;DHT22;14477;51.038;4.588;2022-07-24T00:14:09;22.20;71.40
26909;DHT22;14477;51.038;4.588;2022-07-24T00:16:35;22.10;71.40
26909;DHT22;14477;51.038;4.588;2022-07-24T00:19:00;22.10;71.60
26909;DHT22;14477;51.038;4.588;2022-07-24T00:21:26;22.00;71.50
26909;DHT22;14477;51.038;4.588;2022-07-24T00:23:52;22.00;71.70
26909;DHT22;14477;51.038;4.588;2022-07-24T00:26:17;21.90;71.70
26909;DHT22;14477;51.038;4.588;2022-07-24T00:28:43;21.80;71.80
26909;DHT22;14477;51.038;4.588;2022-07-24T00:31:09;21.80;72.00
26909;DHT22;14477;51.038;4.588;2022-07-24T00:33:35;21.70;72.00
26909;DHT22;14477;51.038;4.588;2022-07-24T00:36:01;21.70;72.20
26909;DHT22;14477;51.038;4.588;2022-07-24T00:38:26;21.70;72.30
26909;DHT22;14477;51.038;4.588;2022-07-24T00:40:52;21.60;72.40
26909;DHT22;14477;51.038;4.588;2022-07-24T00:43:18;21.50;72.40
26909;DHT22;14477;51.038;4.588;2022-07-24T00:45:44;21.50;72.50
26909;DHT22;14477;51.038;4.588;2022-07-24T00:48:10;21.50;72.70
26909;DHT22;14477;51.038;4.588;2022-07-24T00:50:37;21.40;72.80
26909;DHT22;14477;51.038;4.588;2022-07-24T00:53:03;21.40;72.90
26909;DHT22;14477;51.038;4.588;2022-07-24T00:55:29;21.30;72.90
26909;DHT22;14477;51.038;4.588;2022-07-24T00:57:55;21.30;73.10
26909;DHT22;14477;51.038;4.588;2022-07-24T01:00:21;21.30;73.20
26909;DHT22;14477;51.038;4.588;2022-07-24T01:02:48;21.20;73.20
26909;DHT22;14477;51.038;4.588;2022-07-24T01:05:14;21.20;73.30
26909;DHT22;14477;51.038;4.588;2022-07-24T01:07:40;21.10;73.40
26909;DHT22;14477;51.038;4.588;2022-07-24T01:10:07;21.10;73.40
26909;DHT22;14477;51.038;4.588;2022-07-24T01:12:34;21.00;73.60
26909;DHT22;14477;51.038;4.588;2022-07-24T01:15:00;20.90;73.70
26909;DHT22;14477;51.038;4.588;2022-07-24T01:17:30;20.90;73.80
26909;DHT22;14477;51.038;4.588;2022-07-24T01:19:56;20.90;74.20
26909;DHT22;14477;51.038;4.588;2022-07-24T01:22:22;20.80;73.90
26909;DHT22;14477;51.038;4.588;2022-07-24T01:24:48;20.70;74.00
26909;DHT22;14477;51.038;4.588;2022-07-24T01:27:14;20.70;74.20
26909;DHT22;14477;51.038;4.588;2022-07-24T01:29:40;20.70;74.40
26909;DHT22;14477;51.038;4.588;2022-07-24T01:32:06;20.70;74.50
26909;DHT22;14477;51.038;4.588;2022-07-24T01:34:31;20.60;74.50
26909;DHT22;14477;51.038;4.588;2022-07-24T01:36:57;20.60;74.70
26909;DHT22;14477;51.038;4.588;2022-07-24T01:39:23;20.60;74.90
26909;DHT22;14477;51.038;4.588;2022-07-24T01:41:49;20.60;75.00
26909;DHT22;14477;51.038;4.588;2022-07-24T01:44:14;20.50;75.10
26909;DHT22;14477;51.038;4.588;2022-07-24T01:46:40;20.50;75.20
26909;DHT22;14477;51.038;4.588;2022-07-24T01:49:06;20.40;75.30
26909;DHT22;14477;51.038;4.588;2022-07-24T01:51:31;20.40;75.40
26909;DHT22;14477;51.038;4.588;2022-07-24T01:53:57;20.40;75.50
26909;DHT22;14477;51.038;4.588;2022-07-24T01:56:22;20.40;75.70
26909;DHT22;14477;51.038;4.588;2022-07-24T01:58:48;20.40;75.70
26909;DHT22;14477;51.038;4.588;2022-07-24T02:01:14;20.30;75.70
26909;DHT22;14477;51.038;4.588;2022-07-24T02:03:39;20.30;75.90
26909;DHT22;14477;51.038;4.588;2022-07-24T02:06:05;20.30;76.00
26909;DHT22;14477;51.038;4.588;2022-07-24T02:08:31;20.20;76.20
26909;DHT22;14477;51.038;4.588;2022-07-24T02:10:56;20.20;76.30
26909;DHT22;14477;51.038;4.588;2022-07-24T02:13:22;20.20;76.50
26909;DHT22;14477;51.038;4.588;2022-07-24T02:15:47;20.10;76.60
26909;DHT22;14477;51.038;4.588;2022-07-24T02:18:13;20.10;76.60
26909;DHT22;14477;51.038;4.588;2022-07-24T02:20:40;20.10;76.70
26909;DHT22;14477;51.038;4.588;2022-07-24T02:23:06;20.10;76.90
26909;DHT22;14477;51.038;4.588;2022-07-24T02:25:31;20.00;76.90
26909;DHT22;14477;51.038;4.588;2022-07-24T02:27:57;20.00;77.80
26909;DHT22;14477;51.038;4.588;2022-07-24T02:30:23;20.00;77.10
26909;DHT22;14477;51.038;4.588;2022-07-24T02:32:50;19.90;77.10
26909;DHT22;14477;51.038;4.588;2022-07-24T02:35:16;19.90;77.20
26909;DHT22;14477;51.038;4.588;2022-07-24T02:37:44;19.90;77.40
26909;DHT22;14477;51.038;4.588;2022-07-24T02:40:11;19.80;77.70
26909;DHT22;14477;51.038;4.588;2022-07-24T02:42:37;19.80;77.70
26909;DHT22;14477;51.038;4.588;2022-07-24T02:45:04;19.80;77.70
26909;DHT22;14477;51.038;4.588;2022-07-24T02:47:30;19.70;77.90
26909;DHT22;14477;51.038;4.588;2022-07-24T02:49:56;19.70;78.00
26909;DHT22;14477;51.038;4.588;2022-07-24T02:52:22;19.70;78.10
26909;DHT22;14477;51.038;4.588;2022-07-24T02:54:48;19.70;78.20
26909;DHT22;14477;51.038;4.588;2022-07-24T02:57:13;19.60;78.30
26909;DHT22;14477;51.038;4.588;2022-07-24T02:59:39;19.60;78.50
26909;DHT22;14477;51.038;4.588;2022-07-24T03:02:04;19.60;78.50
26909;DHT22;14477;51.038;4.588;2022-07-24T03:04:31;19.60;78.60
26909;DHT22;14477;51.038;4.588;2022-07-24T03:06:57;19.50;78.50
26909;DHT22;14477;51.038;4.588;2022-07-24T03:09:22;19.50;78.50
26909;DHT22;14477;51.038;4.588;2022-07-24T03:11:48;19.50;78.60
26909;DHT22;14477;51.038;4.588;2022-07-24T03:14:14;19.50;78.80
26909;DHT22;14477;51.038;4.588;2022-07-24T03:16:39;19.40;78.80
26909;DHT22;14477;51.038;4.588;2022-07-24T03:19:05;19.40;78.90
26909;DHT22;14477;51.038;4.588;2022-07-24T03:21:30;19.40;79.00
26909;DHT22;14477;51.038;4.588;2022-07-24T03:23:56;19.30;78.90
26909;DHT22;14477;51.038;4.588;2022-07-24T03:26:22;19.30;78.90
26909;DHT22;14477;51.038;4.588;2022-07-24T03:28:47;19.30;79.00
26909;DHT22;14477;51.038;4.588;2022-07-24T03:31:13;19.30;79.00
26909;DHT22;14477;51.038;4.588;2022-07-24T03:33:39;19.30;79.10
26909;DHT22;14477;51.038;4.588;2022-07-24T03:36:04;19.20;79.00
26909;DHT22;14477;51.038;4.588;2022-07-24T03:38:30;19.20;79.20
26909;DHT22;14477;51.038;4.588;2022-07-24T03:40:56;19.20;79.30
26909;DHT22;14477;51.038;4.588;2022-07-24T03:43:21;19.10;79.40
26909;DHT22;14477;51.038;4.588;2022-07-24T03:45:47;19.10;79.50
26909;DHT22;14477;51.038;4.588;2022-07-24T03:48:12;19.10;79.80
26909;DHT22;14477;51.038;4.588;2022-07-24T03:50:38;19.10;79.90
26909;DHT22;14477;51.038;4.588;2022-07-24T03:53:04;19.00;79.90
26909;DHT22;14477;51.038;4.588;2022-07-24T03:55:29;19.00;79.90
26909;DHT22;14477;51.038;4.588;2022-07-24T03:57:55;19.00;80.20
26909;DHT22;14477;51.038;4.588;2022-07-24T04:00:20;18.90;80.20
26909;DHT22;14477;51.038;4.588;2022-07-24T04:02:46;18.90;80.20
26909;DHT22;14477;51.038;4.588;2022-07-24T04:05:12;18.90;80.30
26909;DHT22;14477;51.038;4.588;2022-07-24T04:07:39;18.90;80.50
26909;DHT22;14477;51.038;4.588;2022-07-24T04:10:06;18.80;80.50
26909;DHT22;14477;51.038;4.588;2022-07-24T04:12:32;18.80;80.70
26909;DHT22;14477;51.038;4.588;2022-07-24T04:14:58;18.80;80.70
26909;DHT22;14477;51.038;4.588;2022-07-24T04:17:24;18.80;80.70
26909;DHT22;14477;51.038;4.588;2022-07-24T04:19:50;18.80;80.90
26909;DHT22;14477;51.038;4.588;2022-07-24T04:22:16;18.70;80.80
26909;DHT22;14477;51.038;4.588;2022-07-24T04:24:42;18.80;81.00
26909;DHT22;14477;51.038;4.588;2022-07-24T04:27:07;18.70;81.00
26909;DHT22;14477;51.038;4.588;2022-07-24T04:29:33;18.70;81.00
26909;DHT22;14477;51.038;4.588;2022-07-24T04:31:58;18.70;81.20
26909;DHT22;14477;51.038;4.588;2022-07-24T04:34:24;18.70;81.20
26909;DHT22;14477;51.038;4.588;2022-07-24T04:36:50;18.70;81.30
26909;DHT22;14477;51.038;4.588;2022-07-24T04:39:16;18.70;81.50
26909;DHT22;14477;51.038;4.588;2022-07-24T04:41:42;18.70;81.60
26909;DHT22;14477;51.038;4.588;2022-07-24T04:44:07;18.70;81.70
26909;DHT22;14477;51.038;4.588;2022-07-24T04:46:33;18.60;81.70
26909;DHT22;14477;51.038;4.588;2022-07-24T04:48:59;18.60;81.70
26909;DHT22;14477;51.038;4.588;2022-07-24T04:51:25;18.60;81.80
26909;DHT22;14477;51.038;4.588;2022-07-24T04:53:51;18.70;81.80
26909;DHT22;14477;51.038;4.588;2022-07-24T04:56:20;18.60;81.80
26909;DHT22;14477;51.038;4.588;2022-07-24T04:58:46;18.70;82.00
26909;DHT22;14477;51.038;4.588;2022-07-24T05:01:12;18.70;82.10
26909;DHT22;14477;51.038;4.588;2022-07-24T05:03:38;18.70;82.20
26909;DHT22;14477;51.038;4.588;2022-07-24T05:06:03;18.70;82.40
26909;DHT22;14477;51.038;4.588;2022-07-24T05:08:29;18.70;82.40
26909;DHT22;14477;51.038;4.588;2022-07-24T05:10:55;18.70;82.50
26909;DHT22;14477;51.038;4.588;2022-07-24T05:13:20;18.80;82.70
26909;DHT22;14477;51.038;4.588;2022-07-24T05:15:46;18.80;82.80
26909;DHT22;14477;51.038;4.588;2022-07-24T05:18:11;18.80;83.00
26909;DHT22;14477;51.038;4.588;2022-07-24T05:20:37;18.80;83.30
26909;DHT22;14477;51.038;4.588;2022-07-24T05:23:03;18.80;83.30
26909;DHT22;14477;51.038;4.588;2022-07-24T05:25:29;18.90;83.60
26909;DHT22;14477;51.038;4.588;2022-07-24T05:27:54;18.90;83.80
26909;DHT22;14477;51.038;4.588;2022-07-24T05:30:20;19.00;84.00
26909;DHT22;14477;51.038;4.588;2022-07-24T05:32:46;19.00;84.10
26909;DHT22;14477;51.038;4.588;2022-07-24T05:35:11;19.10;84.30
26909;DHT22;14477;51.038;4.588;2022-07-24T05:37:37;19.10;84.30
26909;DHT22;14477;51.038;4.588;2022-07-24T05:40:03;19.20;84.40
26909;DHT22;14477;51.038;4.588;2022-07-24T05:42:29;19.30;84.50
26909;DHT22;14477;51.038;4.588;2022-07-24T05:44:55;19.30;84.50
26909;DHT22;14477;51.038;4.588;2022-07-24T05:47:21;19.40;84.70
26909;DHT22;14477;51.038;4.588;2022-07-24T05:49:46;19.40;84.70
26909;DHT22;14477;51.038;4.588;2022-07-24T05:52:12;19.50;84.90
26909;DHT22;14477;51.038;4.588;2022-07-24T05:54:37;19.60;84.90
26909;DHT22;14477;51.038;4.588;2022-07-24T05:57:03;19.60;84.90
26909;DHT22;14477;51.038;4.588;2022-07-24T05:59:29;19.70;85.00
26909;DHT22;14477;51.038;4.588;2022-07-24T06:01:54;19.80;85.10
26909;DHT22;14477;51.038;4.588;2022-07-24T06:04:20;19.90;85.10
26909;DHT22;14477;51.038;4.588;2022-07-24T06:06:46;19.90;85.20
26909;DHT22;14477;51.038;4.588;2022-07-24T06:09:11;20.00;85.40
26909;DHT22;14477;51.038;4.588;2022-07-24T06:11:37;20.10;85.40
26909;DHT22;14477;51.038;4.588;2022-07-24T06:14:03;20.20;85.30
26909;DHT22;14477;51.038;4.588;2022-07-24T06:16:28;20.30;85.20
26909;DHT22;14477;51.038;4.588;2022-07-24T06:18:54;20.40;85.10
26909;DHT22;14477;51.038;4.588;2022-07-24T06:21:19;20.50;85.10
26909;DHT22;14477;51.038;4.588;2022-07-24T06:23:45;20.60;85.00
26909;DHT22;14477;51.038;4.588;2022-07-24T06:26:11;20.70;84.90
26909;DHT22;14477;51.038;4.588;2022-07-24T06:28:36;20.70;84.80
26909;DHT22;14477;51.038;4.588;2022-07-24T06:31:02;20.80;84.80
26909;DHT22;14477;51.038;4.588;2022-07-24T06:33:27;20.90;84.80
26909;DHT22;14477;51.038;4.588;2022-07-24T06:35:54;20.90;84.70
26909;DHT22;14477;51.038;4.588;2022-07-24T06:38:20;21.00;84.70
26909;DHT22;14477;51.038;4.588;2022-07-24T06:40:45;21.10;84.70
26909;DHT22;14477;51.038;4.588;2022-07-24T06:43:11;21.20;84.60
26909;DHT22;14477;51.038;4.588;2022-07-24T06:45:36;21.20;84.50
26909;DHT22;14477;51.038;4.588;2022-07-24T06:48:03;21.30;84.50
26909;DHT22;14477;51.038;4.588;2022-07-24T06:50:29;21.40;84.30
26909;DHT22;14477;51.038;4.588;2022-07-24T06:52:55;21.50;84.30
26909;DHT22;14477;51.038;4.588;2022-07-24T06:55:21;21.60;84.30
26909;DHT22;14477;51.038;4.588;2022-07-24T06:57:46;21.70;84.20
26909;DHT22;14477;51.038;4.588;2022-07-24T07:00:13;21.70;84.00
26909;DHT22;14477;51.038;4.588;2022-07-24T07:02:39;21.80;84.00
26909;DHT22;14477;51.038;4.588;2022-07-24T07:05:06;21.90;84.00
26909;DHT22;14477;51.038;4.588;2022-07-24T07:07:32;22.00;83.80
26909;DHT22;14477;51.038;4.588;2022-07-24T07:09:58;22.00;83.50
26909;DHT22;14477;51.038;4.588;2022-07-24T07:12:24;22.10;83.30
26909;DHT22;14477;51.038;4.588;2022-07-24T07:14:50;22.30;83.30
26909;DHT22;14477;51.038;4.588;2022-07-24T07:17:15;22.40;83.40
26909;DHT22;14477;51.038;4.588;2022-07-24T07:19:42;22.40;83.20
26909;DHT22;14477;51.038;4.588;2022-07-24T07:22:08;22.50;83.10
26909;DHT22;14477;51.038;4.588;2022-07-24T07:24:34;22.60;83.10
26909;DHT22;14477;51.038;4.588;2022-07-24T07:26:59;22.70;82.90
26909;DHT22;14477;51.038;4.588;2022-07-24T07:29:25;22.80;82.70
26909;DHT22;14477;51.038;4.588;2022-07-24T07:31:51;22.90;82.60
26909;DHT22;14477;51.038;4.588;2022-07-24T07:34:16;23.00;82.50
26909;DHT22;14477;51.038;4.588;2022-07-24T07:36:42;23.10;82.30
26909;DHT22;14477;51.038;4.588;2022-07-24T07:39:07;23.20;82.20
26909;DHT22;14477;51.038;4.588;2022-07-24T07:41:33;23.30;82.20
26909;DHT22;14477;51.038;4.588;2022-07-24T07:43:59;23.40;82.20
26909;DHT22;14477;51.038;4.588;2022-07-24T07:46:25;23.60;82.20
26909;DHT22;14477;51.038;4.588;2022-07-24T07:48:51;23.70;82.20
26909;DHT22;14477;51.038;4.588;2022-07-24T07:51:17;23.90;82.40
26909;DHT22;14477;51.038;4.588;2022-07-24T07:53:42;24.10;82.50
26909;DHT22;14477;51.038;4.588;2022-07-24T07:56:08;24.40;82.80
26909;DHT22;14477;51.038;4.588;2022-07-24T07:58:34;24.70;83.10
26909;DHT22;14477;51.038;4.588;2022-07-24T08:01:00;25.00;83.10
26909;DHT22;14477;51.038;4.588;2022-07-24T08:03:25;25.30;83.90
26909;DHT22;14477;51.038;4.588;2022-07-24T08:05:51;25.70;82.90
26909;DHT22;14477;51.038;4.588;2022-07-24T08:08:17;26.00;82.20
26909;DHT22;14477;51.038;4.588;2022-07-24T08:10:43;26.40;81.70
26909;DHT22;14477;51.038;4.588;2022-07-24T08:13:08;26.70;81.00
26909;DHT22;14477;51.038;4.588;2022-07-24T08:15:34;27.00;80.80
26909;DHT22;14477;51.038;4.588;2022-07-24T08:18:00;27.30;80.00
26909;DHT22;14477;51.038;4.588;2022-07-24T08:20:26;27.60;80.00
26909;DHT22;14477;51.038;4.588;2022-07-24T08:22:52;27.90;79.60
26909;DHT22;14477;51.038;4.588;2022-07-24T08:25:18;28.30;80.30
26909;DHT22;14477;51.038;4.588;2022-07-24T08:27:44;28.80;81.00
26909;DHT22;14477;51.038;4.588;2022-07-24T08:30:10;29.20;79.70
26909;DHT22;14477;51.038;4.588;2022-07-24T08:32:36;29.70;79.10
26909;DHT22;14477;51.038;4.588;2022-07-24T08:35:04;30.20;78.60
26909;DHT22;14477;51.038;4.588;2022-07-24T08:37:29;30.60;77.40
26909;DHT22;14477;51.038;4.588;2022-07-24T08:39:55;31.10;76.60
26909;DHT22;14477;51.038;4.588;2022-07-24T08:42:21;31.50;76.20
26909;DHT22;14477;51.038;4.588;2022-07-24T08:44:48;31.90;74.40
26909;DHT22;14477;51.038;4.588;2022-07-24T08:47:15;32.10;72.00
26909;DHT22;14477;51.038;4.588;2022-07-24T08:49:41;32.40;70.40
26909;DHT22;14477;51.038;4.588;2022-07-24T08:52:09;32.70;70.20
26909;DHT22;14477;51.038;4.588;2022-07-24T08:54:36;32.80;69.60
26909;DHT22;14477;51.038;4.588;2022-07-24T08:57:03;33.10;69.50
26909;DHT22;14477;51.038;4.588;2022-07-24T08:59:29;33.30;68.20
26909;DHT22;14477;51.038;4.588;2022-07-24T09:01:55;33.60;68.30
26909;DHT22;14477;51.038;4.588;2022-07-24T09:04:33;33.90;67.00
26909;DHT22;14477;51.038;4.588;2022-07-24T09:07:00;34.10;62.80
26909;DHT22;14477;51.038;4.588;2022-07-24T09:09:26;34.40;65.80
26909;DHT22;14477;51.038;4.588;2022-07-24T09:14:43;34.90;59.30
26909;DHT22;14477;51.038;4.588;2022-07-24T09:17:11;35.10;62.70
26909;DHT22;14477;51.038;4.588;2022-07-24T09:19:56;35.40;61.30
26909;DHT22;14477;51.038;4.588;2022-07-24T09:25:23;35.90;58.50
26909;DHT22;14477;51.038;4.588;2022-07-24T09:27:56;36.00;56.80
26909;DHT22;14477;51.038;4.588;2022-07-24T09:30:33;36.20;57.10
26909;DHT22;14477;51.038;4.588;2022-07-24T09:33:03;36.30;56.40
26909;DHT22;14477;51.038;4.588;2022-07-24T09:38:13;36.60;57.60
26909;DHT22;14477;51.038;4.588;2022-07-24T09:40:46;36.80;54.80
26909;DHT22;14477;51.038;4.588;2022-07-24T09:43:30;36.90;54.90
26909;DHT22;14477;51.038;4.588;2022-07-24T09:46:03;37.10;53.00
26909;DHT22;14477;51.038;4.588;2022-07-24T09:48:40;37.30;53.20
26909;DHT22;14477;51.038;4.588;2022-07-24T09:51:11;37.50;52.90
26909;DHT22;14477;51.038;4.588;2022-07-24T09:53:38;37.60;52.60
26909;DHT22;14477;51.038;4.588;2022-07-24T09:58:38;37.90;53.50
26909;DHT22;14477;51.038;4.588;2022-07-24T10:01:06;38.10;52.00
26909;DHT22;14477;51.038;4.588;2022-07-24T10:03:33;38.20;51.40
26909;DHT22;14477;51.038;4.588;2022-07-24T10:06:03;38.30;51.10
26909;DHT22;14477;51.038;4.588;2022-07-24T10:08:30;38.30;50.40
26909;DHT22;14477;51.038;4.588;2022-07-24T10:10:57;38.40;51.00
26909;DHT22;14477;51.038;4.588;2022-07-24T10:13:23;38.50;50.20
26909;DHT22;14477;51.038;4.588;2022-07-24T10:21:28;38.80;49.80
26909;DHT22;14477;51.038;4.588;2022-07-24T10:26:33;39.20;47.20
26909;DHT22;14477;51.038;4.588;2022-07-24T10:29:06;39.30;49.30
26909;DHT22;14477;51.038;4.588;2022-07-24T10:31:34;39.60;46.30
26909;DHT22;14477;51.038;4.588;2022-07-24T10:34:11;39.60;47.90
26909;DHT22;14477;51.038;4.588;2022-07-24T10:36:44;39.80;46.50
26909;DHT22;14477;51.038;4.588;2022-07-24T10:39:20;39.90;45.80
26909;DHT22;14477;51.038;4.588;2022-07-24T10:42:02;40.00;45.70
26909;DHT22;14477;51.038;4.588;2022-07-24T10:44:28;40.10;45.00
26909;DHT22;14477;51.038;4.588;2022-07-24T10:49:46;40.40;43.70
26909;DHT22;14477;51.038;4.588;2022-07-24T10:52:29;40.60;42.90
26909;DHT22;14477;51.038;4.588;2022-07-24T10:58:18;40.90;43.90
26909;DHT22;14477;51.038;4.588;2022-07-24T11:00:50;41.00;42.40
26909;DHT22;14477;51.038;4.588;2022-07-24T11:03:24;41.10;44.10
26909;DHT22;14477;51.038;4.588;2022-07-24T11:06:11;41.20;42.20
26909;DHT22;14477;51.038;4.588;2022-07-24T11:08:44;41.20;41.90
26909;DHT22;14477;51.038;4.588;2022-07-24T11:11:17;41.20;43.50
26909;DHT22;14477;51.038;4.588;2022-07-24T11:13:52;41.20;41.40
26909;DHT22;14477;51.038;4.588;2022-07-24T11:16:24;41.20;40.60
26909;DHT22;14477;51.038;4.588;2022-07-24T11:21:29;41.20;43.00
26909;DHT22;14477;51.038;4.588;2022-07-24T11:29:38;41.60;40.00
26909;DHT22;14477;51.038;4.588;2022-07-24T11:32:14;41.70;40.40
26909;DHT22;14477;51.038;4.588;2022-07-24T11:34:45;41.80;40.70
26909;DHT22;14477;51.038;4.588;2022-07-24T11:37:11;41.80;41.30
26909;DHT22;14477;51.038;4.588;2022-07-24T11:39:39;41.80;41.20
26909;DHT22;14477;51.038;4.588;2022-07-24T11:42:07;41.80;40.30
26909;DHT22;14477;51.038;4.588;2022-07-24T11:44:38;41.80;40.70
26909;DHT22;14477;51.038;4.588;2022-07-24T11:47:12;41.70;39.50
26909;DHT22;14477;51.038;4.588;2022-07-24T11:49:47;41.70;39.30
26909;DHT22;14477;51.038;4.588;2022-07-24T11:54:48;41.50;37.80
26909;DHT22;14477;51.038;4.588;2022-07-24T11:57:19;41.50;40.20
26909;DHT22;14477;51.038;4.588;2022-07-24T11:59:47;41.60;38.80
26909;DHT22;14477;51.038;4.588;2022-07-24T12:02:13;41.60;39.00
26909;DHT22;14477;51.038;4.588;2022-07-24T12:04:40;41.60;39.30
26909;DHT22;14477;51.038;4.588;2022-07-24T12:07:08;41.60;38.90
26909;DHT22;14477;51.038;4.588;2022-07-24T12:09:53;41.70;38.60
26909;DHT22;14477;51.038;4.588;2022-07-24T12:12:23;41.70;38.50
26909;DHT22;14477;51.038;4.588;2022-07-24T12:15:13;41.70;39.30
26909;DHT22;14477;51.038;4.588;2022-07-24T12:17:59;41.80;38.00
26909;DHT22;14477;51.038;4.588;2022-07-24T12:22:51;41.80;38.80
26909;DHT22;14477;51.038;4.588;2022-07-24T12:25:17;41.80;38.20
26909;DHT22;14477;51.038;4.588;2022-07-24T12:27:45;41.80;38.20
26909;DHT22;14477;51.038;4.588;2022-07-24T12:30:21;41.80;38.00
26909;DHT22;14477;51.038;4.588;2022-07-24T12:35:59;42.00;36.90
26909;DHT22;14477;51.038;4.588;2022-07-24T12:38:37;42.20;38.30
26909;DHT22;14477;51.038;4.588;2022-07-24T12:41:08;42.20;36.20
26909;DHT22;14477;51.038;4.588;2022-07-24T12:46:15;42.00;35.00
26909;DHT22;14477;51.038;4.588;2022-07-24T12:49:16;41.90;37.70
26909;DHT22;14477;51.038;4.588;2022-07-24T12:51:54;41.90;35.30
26909;DHT22;14477;51.038;4.588;2022-07-24T12:54:24;41.90;36.00
26909;DHT22;14477;51.038;4.588;2022-07-24T12:56:56;41.80;36.10
26909;DHT22;14477;51.038;4.588;2022-07-24T12:59:30;41.80;36.00
26909;DHT22;14477;51.038;4.588;2022-07-24T13:02:10;41.80;36.10
26909;DHT22;14477;51.038;4.588;2022-07-24T13:04:53;41.70;36.30
26909;DHT22;14477;51.038;4.588;2022-07-24T13:07:21;41.70;36.00
26909;DHT22;14477;51.038;4.588;2022-07-24T13:09:48;41.70;35.20
26909;DHT22;14477;51.038;4.588;2022-07-24T13:12:14;41.60;34.80
26909;DHT22;14477;51.038;4.588;2022-07-24T13:14:40;41.50;35.30
26909;DHT22;14477;51.038;4.588;2022-07-24T13:17:15;41.30;35.50
26909;DHT22;14477;51.038;4.588;2022-07-24T13:19:43;41.30;35.40
26909;DHT22;14477;51.038;4.588;2022-07-24T13:22:09;41.20;36.10
26909;DHT22;14477;51.038;4.588;2022-07-24T13:24:35;41.30;36.40
26909;DHT22;14477;51.038;4.588;2022-07-24T13:27:03;41.30;35.90
26909;DHT22;14477;51.038;4.588;2022-07-24T13:29:29;41.30;35.90
26909;DHT22;14477;51.038;4.588;2022-07-24T13:31:55;41.40;36.30
26909;DHT22;14477;51.038;4.588;2022-07-24T13:34:21;41.50;36.10
26909;DHT22;14477;51.038;4.588;2022-07-24T13:36:46;41.50;36.10
26909;DHT22;14477;51.038;4.588;2022-07-24T13:39:13;41.60;35.80
26909;DHT22;14477;51.038;4.588;2022-07-24T13:41:39;41.60;35.80
26909;DHT22;14477;51.038;4.588;2022-07-24T13:44:05;41.50;35.40
26909;DHT22;14477;51.038;4.588;2022-07-24T13:46:32;41.50;35.30
26909;DHT22;14477;51.038;4.588;2022-07-24T13:49:01;41.40;34.90
26909;DHT22;14477;51.038;4.588;2022-07-24T13:51:27;41.40;34.50
26909;DHT22;14477;51.038;4.588;2022-07-24T13:53:53;41.30;35.00
26909;DHT22;14477;51.038;4.588;2022-07-24T13:56:19;41.20;34.70
26909;DHT22;14477;51.038;4.588;2022-07-24T13:58:47;41.00;35.10
26909;DHT22;14477;51.038;4.588;2022-07-24T14:01:13;40.90;34.90
26909;DHT22;14477;51.038;4.588;2022-07-24T14:03:39;40.90;35.10
26909;DHT22;14477;51.038;4.588;2022-07-24T14:06:07;40.70;35.10
26909;DHT22;14477;51.038;4.588;2022-07-24T14:08:33;40.70;35.20
26909;DHT22;14477;51.038;4.588;2022-07-24T14:10:58;40.70;35.90
26909;DHT22;14477;51.038;4.588;2022-07-24T14:13:24;40.60;36.00
26909;DHT22;14477;51.038;4.588;2022-07-24T14:15:50;40.70;35.60
26909;DHT22;14477;51.038;4.588;2022-07-24T14:18:15;40.70;35.40
26909;DHT22;14477;51.038;4.588;2022-07-24T14:20:41;40.60;35.20
26909;DHT22;14477;51.038;4.588;2022-07-24T14:23:07;40.60;35.40
26909;DHT22;14477;51.038;4.588;2022-07-24T14:25:33;40.50;35.20
26909;DHT22;14477;51.038;4.588;2022-07-24T14:27:58;40.50;35.40
26909;DHT22;14477;51.038;4.588;2022-07-24T14:30:24;40.40;35.00
26909;DHT22;14477;51.038;4.588;2022-07-24T14:32:50;40.30;34.70
26909;DHT22;14477;51.038;4.588;2022-07-24T14:35:15;40.20;35.00
26909;DHT22;14477;51.038;4.588;2022-07-24T14:37:41;40.00;35.20
26909;DHT22;14477;51.038;4.588;2022-07-24T14:40:08;39.90;35.50
26909;DHT22;14477;51.038;4.588;2022-07-24T14:42:34;39.90;35.50
26909;DHT22;14477;51.038;4.588;2022-07-24T14:45:00;39.80;35.20
26909;DHT22;14477;51.038;4.588;2022-07-24T14:47:26;39.70;35.10
26909;DHT22;14477;51.038;4.588;2022-07-24T14:49:52;39.60;35.30
26909;DHT22;14477;51.038;4.588;2022-07-24T14:52:18;39.50;35.30
26909;DHT22;14477;51.038;4.588;2022-07-24T14:54:45;39.50;35.40
26909;DHT22;14477;51.038;4.588;2022-07-24T14:57:11;39.30;35.30
26909;DHT22;14477;51.038;4.588;2022-07-24T14:59:37;39.20;35.40
26909;DHT22;14477;51.038;4.588;2022-07-24T15:02:03;39.10;35.50
26909;DHT22;14477;51.038;4.588;2022-07-24T15:04:28;38.90;35.60
26909;DHT22;14477;51.038;4.588;2022-07-24T15:06:54;38.80;35.80
26909;DHT22;14477;51.038;4.588;2022-07-24T15:09:20;38.70;35.70
26909;DHT22;14477;51.038;4.588;2022-07-24T15:11:45;38.60;35.90
26909;DHT22;14477;51.038;4.588;2022-07-24T15:14:11;38.50;36.30
26909;DHT22;14477;51.038;4.588;2022-07-24T15:16:37;38.40;36.00
26909;DHT22;14477;51.038;4.588;2022-07-24T15:19:03;38.20;36.00
26909;DHT22;14477;51.038;4.588;2022-07-24T15:21:29;38.10;36.10
26909;DHT22;14477;51.038;4.588;2022-07-24T15:23:55;38.00;36.30
26909;DHT22;14477;51.038;4.588;2022-07-24T15:26:20;37.90;36.30
26909;DHT22;14477;51.038;4.588;2022-07-24T15:28:46;37.80;36.40
26909;DHT22;14477;51.038;4.588;2022-07-24T15:31:11;37.70;37.20
26909;DHT22;14477;51.038;4.588;2022-07-24T15:33:39;37.60;36.70
26909;DHT22;14477;51.038;4.588;2022-07-24T15:36:04;37.50;37.00
26909;DHT22;14477;51.038;4.588;2022-07-24T15:38:30;37.40;37.20
26909;DHT22;14477;51.038;4.588;2022-07-24T15:40:56;37.40;37.20
26909;DHT22;14477;51.038;4.588;2022-07-24T15:43:21;37.30;37.00
26909;DHT22;14477;51.038;4.588;2022-07-24T15:45:47;37.20;37.20
26909;DHT22;14477;51.038;4.588;2022-07-24T15:48:13;37.20;37.30
26909;DHT22;14477;51.038;4.588;2022-07-24T15:50:38;37.10;37.40
26909;DHT22;14477;51.038;4.588;2022-07-24T15:53:04;37.10;37.60
26909;DHT22;14477;51.038;4.588;2022-07-24T15:55:29;37.00;37.50
26909;DHT22;14477;51.038;4.588;2022-07-24T15:57:55;36.90;37.20
26909;DHT22;14477;51.038;4.588;2022-07-24T16:00:21;36.80;37.60
26909;DHT22;14477;51.038;4.588;2022-07-24T16:02:46;36.70;37.40
26909;DHT22;14477;51.038;4.588;2022-07-24T16:05:13;36.70;37.80
26909;DHT22;14477;51.038;4.588;2022-07-24T16:07:39;36.70;37.90
26909;DHT22;14477;51.038;4.588;2022-07-24T16:10:05;36.60;38.00
26909;DHT22;14477;51.038;4.588;2022-07-24T16:12:31;36.60;38.20
26909;DHT22;14477;51.038;4.588;2022-07-24T16:14:57;36.60;38.30